Time;durP1;ratioP1;P1;durP2;ratioP2;P2;SDS_P1;SDS_P2;PMS_P1;PMS_P2;Temp;Humidity;BMP_temperature;BMP_pressure;BME280_temperature;BME280_humidity;BME280_pressure;Samples;Min_cycle;Max_cycle;Signal;HPM_P1;HPM_P2
2022/09/02 00:00:21;;;;;;;1.45;1.35;;;;;;;13.24;66.81;101602.78;7399161;19;20011;-67
2022/09/02 00:02:51;;;;;;;2.03;1.42;;;;;;;13.20;66.96;101597.59;7397373;19;20023;-67
2022/09/02 00:05:19;;;;;;;1.80;1.30;;;;;;;13.16;67.20;101598.50;7396243;19;20018;-67
2022/09/02 00:07:48;;;;;;;2.63;1.75;;;;;;;13.12;67.26;101596.84;7398574;19;20505;-67
2022/09/02 00:10:16;;;;;;;4.15;2.50;;;;;;;13.10;67.23;101597.78;7398464;19;20019;-67
2022/09/02 00:12:45;;;;;;;4.70;3.03;;;;;;;13.08;67.49;101595.16;7398277;19;20022;-67
2022/09/02 00:15:13;;;;;;;5.15;3.28;;;;;;;13.07;67.51;101600.44;7398727;19;20014;-67
2022/09/02 00:17:44;;;;;;;3.65;1.90;;;;;;;13.04;67.56;101601.38;7398560;19;20022;-67
2022/09/02 00:20:14;;;;;;;4.13;2.45;;;;;;;13.01;67.98;101598.81;7398208;19;20077;-67
2022/09/02 00:22:42;;;;;;;4.03;1.75;;;;;;;12.98;67.90;101599.72;7397506;19;20012;-67
2022/09/02 00:25:12;;;;;;;3.80;1.90;;;;;;;12.94;67.88;101594.53;7395791;19;20035;-67
2022/09/02 00:27:40;;;;;;;2.05;1.58;;;;;;;12.91;68.04;101591.97;7398279;19;20031;-67
2022/09/02 00:30:10;;;;;;;2.38;1.48;;;;;;;12.87;68.31;101594.63;7398081;19;20014;-67
2022/09/02 00:32:38;;;;;;;3.13;1.50;;;;;;;12.84;68.34;101589.44;7395690;19;20524;-67
2022/09/02 00:35:11;;;;;;;2.05;1.77;;;;;;;12.79;68.48;101586.03;7395510;19;20522;-67
2022/09/02 00:37:40;;;;;;;2.88;1.70;;;;;;;12.77;68.85;101594.84;7398134;19;20431;-67
2022/09/02 00:40:10;;;;;;;2.03;1.80;;;;;;;12.72;68.76;101594.91;7397295;19;20082;-67
2022/09/02 00:42:39;;;;;;;3.50;2.30;;;;;;;12.70;68.80;101594.06;7396489;19;20431;-67
2022/09/02 00:45:11;;;;;;;1.63;1.45;;;;;;;12.65;69.04;101590.63;7395581;19;20022;-67
2022/09/02 00:47:39;;;;;;;3.75;1.92;;;;;;;12.64;69.10;101584.53;7397055;19;20011;-67
2022/09/02 00:50:14;;;;;;;2.15;1.70;;;;;;;12.55;69.36;101577.66;7397381;19;20019;-68
2022/09/02 00:52:46;;;;;;;3.20;1.95;;;;;;;12.55;69.40;101593.44;7395091;19;20015;-67
2022/09/02 00:55:18;;;;;;;1.67;1.50;;;;;;;12.53;69.52;101582.06;7396028;19;20018;-67
2022/09/02 00:57:52;;;;;;;4.00;1.75;;;;;;;12.49;69.73;101590.03;7397194;19;20031;-67
2022/09/02 01:00:23;;;;;;;2.58;1.75;;;;;;;12.42;70.05;101581.34;7397589;19;20161;-67
2022/09/02 01:02:54;;;;;;;4.85;1.85;;;;;;;12.38;69.85;101582.31;7395350;19;20018;-67
2022/09/02 01:05:28;;;;;;;3.58;1.48;;;;;;;12.35;70.09;101585.84;7397381;19;20025;-67
2022/09/02 01:07:57;;;;;;;;;;;;;;;12.32;69.83;101582.41;7398154;19;20028;-67
2022/09/02 01:10:32;;;;;;;2.30;1.70;;;;;;;12.26;69.79;101572.84;7396714;19;20318;-67
2022/09/02 01:13:05;;;;;;;2.22;1.92;;;;;;;12.24;70.17;101582.53;7397266;19;20025;-67
2022/09/02 01:15:36;;;;;;;3.92;1.70;;;;;;;12.22;70.16;101576.44;7397059;19;20018;-67
2022/09/02 01:18:06;;;;;;;2.30;1.80;;;;;;;12.20;70.40;101580.84;7396296;19;20011;-67
2022/09/02 01:20:37;;;;;;;3.13;1.77;;;;;;;12.16;70.61;101582.66;7396867;19;20022;-67
2022/09/02 01:23:08;;;;;;;2.05;1.85;;;;;;;12.14;70.81;101578.28;7395328;19;20031;-68
2022/09/02 01:25:37;;;;;;;1.50;1.30;;;;;;;12.11;70.90;101573.94;7396726;19;20074;-67
2022/09/02 01:28:08;;;;;;;2.67;1.98;;;;;;;12.08;71.04;101578.38;7395866;19;20015;-67
2022/09/02 01:30:40;;;;;;;3.97;2.10;;;;;;;12.06;71.10;101581.03;7395791;19;20512;-67
2022/09/02 01:33:08;;;;;;;2.80;1.92;;;;;;;12.03;71.14;101586.34;7394369;19;20017;-68
2022/09/02 01:35:38;;;;;;;3.05;2.08;;;;;;;12.02;71.27;101589.88;7395931;19;20015;-67
2022/09/02 01:38:09;;;;;;;2.10;1.90;;;;;;;11.97;71.53;101579.41;7395861;19;20053;-67
2022/09/02 01:40:38;;;;;;;2.38;2.10;;;;;;;11.93;71.72;101584.69;7395480;19;20485;-67
2022/09/02 01:43:09;;;;;;;3.80;2.00;;;;;;;11.90;71.94;101583.88;7395043;19;20014;-67
2022/09/02 01:45:40;;;;;;;5.57;2.35;;;;;;;11.86;71.92;101582.16;7396008;19;20022;-67
2022/09/02 01:48:10;;;;;;;2.75;1.85;;;;;;;11.83;72.04;101581.34;7395326;19;20031;-67
2022/09/02 01:50:40;;;;;;;4.35;2.00;;;;;;;11.78;72.08;101580.50;7395518;19;20082;-67
2022/09/02 01:53:11;;;;;;;3.25;2.13;;;;;;;11.74;72.33;101577.09;7394206;19;20019;-67
2022/09/02 01:55:40;;;;;;;3.13;2.40;;;;;;;11.72;72.54;101577.06;7393101;19;20509;-67
2022/09/02 01:58:09;;;;;;;2.25;1.80;;;;;;;11.70;72.46;101572.72;7395339;19;20018;-67
2022/09/02 02:00:38;;;;;;;3.85;1.98;;;;;;;11.67;72.67;101568.38;7394847;19;20481;-67
2022/09/02 02:03:07;;;;;;;3.13;1.80;;;;;;;11.65;72.67;101574.56;7394887;19;20031;-67
2022/09/02 02:05:36;;;;;;;2.30;2.10;;;;;;;11.64;72.79;101570.19;7394002;19;20086;-67
2022/09/02 02:08:05;;;;;;;5.43;2.00;;;;;;;11.61;72.91;101567.59;7395074;19;20022;-67
2022/09/02 02:10:36;;;;;;;2.05;1.90;;;;;;;11.57;72.95;101564.13;7395011;19;20022;-67
2022/09/02 02:13:05;;;;;;;5.63;2.13;;;;;;;11.54;73.18;101567.69;7394640;19;20023;-68
2022/09/02 02:15:34;;;;;;;3.92;2.20;;;;;;;11.50;73.27;101563.34;7395584;19;20028;-68
2022/09/02 02:18:03;;;;;;;3.15;2.55;;;;;;;11.49;73.40;101564.25;7394718;19;20480;-67
2022/09/02 02:20:31;;;;;;;2.58;1.98;;;;;;;11.46;73.39;101564.28;7394262;19;20377;-67
2022/09/02 02:23:00;;;;;;;2.30;2.10;;;;;;;11.44;73.51;101563.44;7394433;19;20127;-68
2022/09/02 02:25:29;;;;;;;3.35;1.77;;;;;;;11.41;73.71;101563.44;7394514;19;20029;-67
2022/09/02 02:28:00;;;;;;;3.42;2.15;;;;;;;11.39;73.79;101567.88;7394427;19;20029;-67
2022/09/02 02:30:28;;;;;;;2.70;2.28;;;;;;;11.36;73.88;101565.25;7394716;19;20090;-68
2022/09/02 02:32:57;;;;;;;3.90;2.92;;;;;;;11.34;73.88;101561.81;7391632;19;20010;-68
2022/09/02 02:35:26;;;;;;;3.83;2.50;;;;;;;11.32;74.21;101558.31;7394769;19;20026;-67
2022/09/02 02:37:55;;;;;;;6.13;2.58;;;;;;;11.25;74.33;101561.00;7393999;19;20015;-67
2022/09/02 02:40:26;;;;;;;3.83;2.50;;;;;;;11.24;74.39;101563.66;7393822;19;20031;-68
2022/09/02 02:42:55;;;;;;;2.70;2.50;;;;;;;11.21;74.45;101564.56;7394326;19;20022;-68
2022/09/02 02:45:27;;;;;;;2.60;2.40;;;;;;;11.17;74.61;101562.88;7393688;19;20018;-67
2022/09/02 02:47:57;;;;;;;2.63;2.42;;;;;;;11.13;74.53;101550.63;7394446;19;20015;-67
2022/09/02 02:50:26;;;;;;;3.80;2.47;;;;;;;11.14;74.71;101559.41;7394392;19;20014;-67
2022/09/02 02:52:55;;;;;;;2.80;2.45;;;;;;;11.08;74.77;101550.72;7391570;19;20022;-68
2022/09/02 02:55:25;;;;;;;2.58;2.38;;;;;;;11.07;74.85;101556.00;7392493;19;20010;-68
2022/09/02 02:57:54;;;;;;;4.43;2.33;;;;;;;11.05;74.90;101552.50;7394087;19;20010;-68
2022/09/02 03:00:27;;;;;;;4.97;2.38;;;;;;;11.02;75.01;101553.41;7393551;19;20015;-67
2022/09/02 03:02:57;;;;;;;4.30;2.45;;;;;;;10.99;75.02;101552.56;7393769;19;20019;-68
2022/09/02 03:05:27;;;;;;;3.03;2.13;;;;;;;10.95;75.19;101548.22;7392960;19;20025;-68
2022/09/02 03:07:55;;;;;;;2.35;2.15;;;;;;;10.91;75.41;101553.50;7393641;19;20014;-67
2022/09/02 03:10:26;;;;;;;4.45;2.72;;;;;;;10.89;75.36;101550.03;7390943;19;20502;-67
2022/09/02 03:12:55;;;;;;;2.95;2.70;;;;;;;10.86;75.58;101552.69;7391899;19;20014;-68
2022/09/02 03:15:23;;;;;;;2.60;2.40;;;;;;;10.82;75.63;101553.59;7393690;19;20078;-67
2022/09/02 03:17:55;;;;;;;3.80;2.83;;;;;;;10.80;75.94;101557.97;7396866;19;20032;-68
2022/09/02 03:20:26;;;;;;;3.45;2.80;;;;;;;10.76;76.08;101553.66;7397506;19;20502;-68
2022/09/02 03:22:57;;;;;;;3.33;2.63;;;;;;;10.74;76.20;101552.78;7399902;19;20031;-69
2022/09/02 03:25:27;;;;;;;2.88;2.60;;;;;;;10.72;76.32;101547.56;7399920;19;20488;-67
2022/09/02 03:27:57;;;;;;;3.15;2.33;;;;;;;10.70;76.40;101541.47;7400543;19;20022;-67
2022/09/02 03:30:28;;;;;;;4.55;2.78;;;;;;;10.68;76.56;101542.34;7399906;19;20506;-67
2022/09/02 03:33:01;;;;;;;3.50;2.70;;;;;;;10.66;76.77;101541.50;7398429;19;20031;-68
2022/09/02 03:35:31;;;;;;;4.25;2.83;;;;;;;10.63;76.77;101539.78;7399605;19;20031;-67
2022/09/02 03:38:01;;;;;;;3.33;2.80;;;;;;;10.63;76.92;101536.28;7398997;19;20018;-67
2022/09/02 03:40:30;;;;;;;3.38;2.88;;;;;;;10.61;77.12;101533.66;7398859;19;20027;-68
2022/09/02 03:42:59;;;;;;;4.97;3.20;;;;;;;10.58;77.17;101542.44;7399197;19;20062;-68
2022/09/02 03:45:27;;;;;;;4.55;3.38;;;;;;;10.57;77.40;101545.09;7398933;19;20028;-67
2022/09/02 03:47:59;;;;;;;3.60;2.78;;;;;;;10.55;77.54;101538.97;7397260;19;20035;-67
2022/09/02 03:50:31;;;;;;;4.30;2.78;;;;;;;10.54;77.45;101537.22;7399224;19;20070;-67
2022/09/02 03:53:00;;;;;;;5.22;2.80;;;;;;;10.52;77.59;101536.38;7397838;19;20548;-68
2022/09/02 03:55:29;;;;;;;4.40;3.25;;;;;;;10.46;77.59;101542.53;7398262;19;20086;-68
2022/09/02 03:57:58;;;;;;;3.38;3.08;;;;;;;10.44;77.59;101544.31;7396939;19;20022;-67
2022/09/02 04:00:30;;;;;;;3.42;2.55;;;;;;;10.39;77.63;101541.72;7398225;19;20010;-68
2022/09/02 04:03:02;;;;;;;3.75;2.60;;;;;;;10.36;77.66;101540.88;7397972;19;20526;-69
2022/09/02 04:05:31;;;;;;;3.33;3.03;;;;;;;10.33;77.56;101540.88;7398185;19;20077;-68
2022/09/02 04:08:00;;;;;;;5.45;2.78;;;;;;;10.28;77.59;101544.41;7398618;19;20022;-68
2022/09/02 04:10:28;;;;;;;3.58;2.88;;;;;;;10.23;77.74;101546.19;7398020;19;20010;-68
2022/09/02 04:12:57;;;;;;;3.03;2.78;;;;;;;10.21;77.91;101544.44;7397316;19;20085;-68
2022/09/02 04:15:26;;;;;;;5.00;2.80;;;;;;;10.16;77.91;101544.50;7398507;19;20024;-68
2022/09/02 04:17:55;;;;;;;6.18;3.20;;;;;;;10.14;77.97;101550.66;7396292;19;20040;-68
2022/09/02 04:20:26;;;;;;;4.47;3.20;;;;;;;10.11;78.04;101546.28;7397767;19;20019;-68
2022/09/02 04:22:55;;;;;;;6.10;3.17;;;;;;;10.08;78.06;101541.94;7397613;19;20511;-69
2022/09/02 04:25:24;;;;;;;4.20;3.35;;;;;;;10.06;78.35;101551.56;7398248;19;20019;-68
2022/09/02 04:27:52;;;;;;;3.30;3.00;;;;;;;10.04;78.28;101549.84;7397471;19;20361;-68
2022/09/02 04:30:23;;;;;;;3.90;3.10;;;;;;;10.01;78.33;101550.72;7397553;19;20018;-68
2022/09/02 04:32:51;;;;;;;4.63;3.33;;;;;;;9.99;78.54;101547.22;7397570;19;20066;-69
2022/09/02 04:35:21;;;;;;;3.53;3.22;;;;;;;9.96;78.51;101544.66;7397694;19;20022;-68
2022/09/02 04:37:52;;;;;;;3.40;3.10;;;;;;;9.94;78.74;101541.16;7397774;19;20018;-68
2022/09/02 04:40:21;;;;;;;6.75;4.13;;;;;;;9.91;78.78;101551.66;7398320;19;20019;-68
2022/09/02 04:42:51;;;;;;;3.42;2.95;;;;;;;9.91;78.75;101552.53;7397327;19;20014;-69
2022/09/02 04:45:19;;;;;;;4.22;3.30;;;;;;;9.88;78.85;101549.94;7396902;19;20033;-68
2022/09/02 04:47:48;;;;;;;5.50;3.10;;;;;;;9.88;78.84;101551.66;7397299;19;20035;-68
2022/09/02 04:50:17;;;;;;;3.45;3.15;;;;;;;9.88;79.05;101551.66;7396548;19;20110;-68
2022/09/02 04:52:45;;;;;;;5.55;3.45;;;;;;;9.86;79.11;101549.06;7396425;19;20509;-68
2022/09/02 04:55:16;;;;;;;4.22;2.95;;;;;;;9.85;79.30;101549.06;7393542;19;20014;-68
2022/09/02 04:57:45;;;;;;;9.68;3.47;;;;;;;9.84;79.24;101548.19;7394074;19;20014;-67
2022/09/02 05:00:15;;;;;;;5.35;3.58;;;;;;;9.85;79.32;101549.94;7393762;19;20019;-67
2022/09/02 05:02:43;;;;;;;3.90;3.53;;;;;;;9.85;79.37;101549.94;7393568;19;20015;-68
2022/09/02 05:05:12;;;;;;;5.90;3.25;;;;;;;9.86;79.26;101549.06;7393821;19;20085;-68
2022/09/02 05:07:41;;;;;;;4.93;4.10;;;;;;;9.87;79.28;101555.16;7395110;19;20023;-68
2022/09/02 05:10:13;;;;;;;6.15;3.72;;;;;;;9.86;79.30;101556.94;7394627;19;20014;-67
2022/09/02 05:12:45;;;;;;;5.38;3.55;;;;;;;9.86;79.19;101550.81;7395201;19;20011;-66
2022/09/02 05:15:14;;;;;;;6.07;3.50;;;;;;;9.88;79.39;101556.91;7393904;19;20014;-67
2022/09/02 05:17:45;;;;;;;6.15;3.45;;;;;;;9.88;79.37;101555.19;7396879;19;20019;-67
2022/09/02 05:20:13;;;;;;;8.20;3.60;;;;;;;9.88;79.47;101555.19;7395770;19;20091;-67
2022/09/02 05:22:42;;;;;;;6.47;3.25;;;;;;;9.88;79.49;101549.94;7395138;19;20022;-71
2022/09/02 05:25:12;;;;;;;4.00;3.60;;;;;;;9.91;79.45;101555.16;7393344;19;20078;-66
2022/09/02 05:27:40;;;;;;;5.20;3.92;;;;;;;9.93;79.56;101553.41;7395174;19;20032;-66
2022/09/02 05:30:13;;;;;;;5.32;3.92;;;;;;;9.95;79.62;101556.00;7393989;19;20484;-67
2022/09/02 05:32:42;;;;;;;6.00;3.58;;;;;;;9.99;79.74;101551.63;7396116;19;20035;-67
2022/09/02 05:35:11;;;;;;;4.55;3.33;;;;;;;10.02;79.94;101551.59;7393455;19;20032;-65
2022/09/02 05:37:39;;;;;;;5.15;4.45;;;;;;;10.05;80.09;101557.69;7394623;19;20037;-65
2022/09/02 05:40:11;;;;;;;4.80;4.03;;;;;;;10.08;80.14;101557.69;7391785;19;20027;-66
2022/09/02 05:42:46;;;;;;;7.70;4.30;;;;;;;10.14;80.13;101562.00;7395253;19;20022;-67
2022/09/02 05:45:17;;;;;;;4.40;4.00;;;;;;;10.18;80.42;101557.59;7393415;19;20014;-66
2022/09/02 05:47:53;;;;;;;5.07;4.57;;;;;;;10.23;80.34;101558.44;7395537;19;20023;-66
2022/09/02 05:50:21;;;;;;;7.55;4.20;;;;;;;10.26;80.49;101556.66;7395386;19;20106;-66
2022/09/02 05:52:51;;;;;;;4.53;4.00;;;;;;;10.31;80.31;101561.00;7393596;19;20355;-66
2022/09/02 05:55:20;;;;;;;5.65;4.28;;;;;;;10.36;80.32;101559.25;7393122;19;20015;-66
2022/09/02 05:57:49;;;;;;;6.60;4.50;;;;;;;10.40;80.47;101564.47;7394708;19;20018;-65
2022/09/02 06:00:20;;;;;;;5.20;4.40;;;;;;;10.46;80.34;101558.28;7393071;19;20023;-66
2022/09/02 06:02:48;;;;;;;5.30;4.25;;;;;;;10.51;80.36;101550.38;7393205;19;20015;-67
2022/09/02 06:05:17;;;;;;;5.22;4.03;;;;;;;10.58;80.38;101549.47;7391432;19;20032;-66
2022/09/02 06:07:46;;;;;;;10.38;5.97;;;;;;;10.64;80.30;101553.75;7392622;19;20022;-67
2022/09/02 06:10:14;;;;;;;5.82;4.50;;;;;;;10.71;80.23;101552.84;7392968;19;20019;-67
2022/09/02 06:12:43;;;;;;;5.53;4.95;;;;;;;10.76;80.22;101551.88;7393742;19;20015;-66
2022/09/02 06:15:13;;;;;;;6.57;4.63;;;;;;;10.84;80.22;101550.94;7392608;19;20040;-67
2022/09/02 06:17:44;;;;;;;6.55;4.68;;;;;;;10.93;80.20;101553.47;7394636;19;20036;-66
2022/09/02 06:20:13;;;;;;;6.35;4.35;;;;;;;11.01;80.17;101553.44;7393135;19;20011;-66
2022/09/02 06:22:42;;;;;;;5.60;4.25;;;;;;;11.08;80.04;101553.34;7394098;19;20505;-67
2022/09/02 06:25:11;;;;;;;4.18;3.50;;;;;;;11.17;80.00;101554.09;7392198;19;20015;-66
2022/09/02 06:27:39;;;;;;;6.68;4.50;;;;;;;11.24;79.95;101548.75;7394079;19;20369;-66
2022/09/02 06:30:10;;;;;;;7.95;4.60;;;;;;;11.33;79.89;101544.31;7393665;19;20029;-67
2022/09/02 06:32:38;;;;;;;4.78;3.80;;;;;;;11.43;79.58;101552.94;7393641;19;20027;-66
2022/09/02 06:35:10;;;;;;;4.88;3.90;;;;;;;11.52;79.45;101550.19;7391741;19;20022;-65
2022/09/02 06:37:40;;;;;;;11.35;6.60;;;;;;;11.60;79.39;101547.47;7393701;19;20086;-66
2022/09/02 06:40:09;;;;;;;5.28;4.78;;;;;;;11.67;79.16;101542.09;7391348;19;20033;-66
2022/09/02 06:42:38;;;;;;;8.27;4.90;;;;;;;11.74;79.24;101549.03;7392104;19;20022;-66
2022/09/02 06:45:08;;;;;;;5.93;4.28;;;;;;;11.84;78.98;101541.00;7392196;19;20022;-67
2022/09/02 06:47:36;;;;;;;5.80;3.85;;;;;;;11.93;78.89;101545.25;7391806;19;20031;-66
2022/09/02 06:50:06;;;;;;;5.25;3.55;;;;;;;12.02;78.75;101550.44;7393187;19;20380;-68
2022/09/02 06:52:37;;;;;;;4.47;4.00;;;;;;;12.10;78.53;101548.53;7398752;19;20533;-68
2022/09/02 06:55:06;;;;;;;3.90;3.53;;;;;;;12.18;78.39;101554.56;7397945;19;20035;-68
2022/09/02 06:57:35;;;;;;;5.97;4.75;;;;;;;12.25;78.50;101550.06;7398228;19;20035;-68
2022/09/02 07:00:05;;;;;;;5.03;4.53;;;;;;;12.32;78.27;101556.97;7400253;19;20528;-68
2022/09/02 07:02:34;;;;;;;7.47;3.72;;;;;;;12.40;78.08;101556.84;7401988;19;20388;-68
2022/09/02 07:05:09;;;;;;;5.55;4.68;;;;;;;12.47;78.01;101558.50;7397477;19;20018;-68
2022/09/02 07:07:43;;;;;;;6.47;4.75;;;;;;;12.54;77.70;101549.56;7400484;19;20011;-68
2022/09/02 07:10:14;;;;;;;4.75;4.25;;;;;;;12.64;77.63;101546.81;7397412;19;20489;-68
2022/09/02 07:12:43;;;;;;;5.70;4.30;;;;;;;12.73;77.24;101551.03;7400033;19;20031;-68
2022/09/02 07:15:12;;;;;;;7.32;4.00;;;;;;;12.83;76.96;101558.72;7396730;19;20048;-68
2022/09/02 07:17:41;;;;;;;4.97;3.35;;;;;;;12.91;76.84;101555.97;7400207;19;20028;-68
2022/09/02 07:20:10;;;;;;;4.47;3.83;;;;;;;13.00;76.63;101557.53;7399604;19;20367;-68
2022/09/02 07:22:41;;;;;;;8.43;3.78;;;;;;;13.10;76.20;101553.84;7399198;19;20073;-68
2022/09/02 07:25:12;;;;;;;11.10;4.28;;;;;;;13.20;75.79;101549.25;7396336;19;20023;-67
2022/09/02 07:27:42;;;;;;;6.97;4.82;;;;;;;13.28;75.73;101557.00;7399319;19;20014;-68
2022/09/02 07:30:12;;;;;;;4.95;4.35;;;;;;;13.36;75.50;101553.31;7398612;19;20386;-68
2022/09/02 07:32:41;;;;;;;7.03;4.13;;;;;;;13.44;75.35;101560.25;7399093;19;20035;-69
2022/09/02 07:35:11;;;;;;;8.05;3.80;;;;;;;13.52;75.13;101556.56;7397226;19;20032;-67
2022/09/02 07:37:42;;;;;;;3.83;3.40;;;;;;;13.62;74.87;101564.25;7399615;19;20015;-68
2022/09/02 07:40:13;;;;;;;5.80;3.58;;;;;;;13.68;74.68;101558.84;7396090;19;20507;-68
2022/09/02 07:42:41;;;;;;;5.82;4.68;;;;;;;13.77;74.51;101560.44;7397358;19;20035;-68
2022/09/02 07:45:11;;;;;;;4.57;3.67;;;;;;;13.85;74.31;101562.00;7396336;19;20018;-67
2022/09/02 07:47:40;;;;;;;4.15;3.15;;;;;;;13.94;74.16;101560.03;7399047;19;20040;-68
2022/09/02 07:50:09;;;;;;;7.80;4.88;;;;;;;14.02;73.75;101556.31;7398765;19;20010;-67
2022/09/02 07:52:38;;;;;;;5.25;3.75;;;;;;;14.13;73.61;101560.50;7398766;19;20014;-67
2022/09/02 07:55:09;;;;;;;6.57;2.90;;;;;;;14.23;73.48;101567.28;7396255;19;20018;-67
2022/09/02 07:57:38;;;;;;;5.70;4.40;;;;;;;14.31;73.28;101556.53;7396003;19;20011;-68
2022/09/02 08:00:08;;;;;;;5.20;3.15;;;;;;;14.40;72.93;101558.94;7398265;19;20035;-67
2022/09/02 08:02:36;;;;;;;4.00;2.72;;;;;;;14.48;72.51;101564.03;7396859;19;20011;-67
2022/09/02 08:05:05;;;;;;;5.47;2.83;;;;;;;14.59;72.33;101561.13;7395730;19;20031;-68
2022/09/02 08:07:34;;;;;;;3.75;2.92;;;;;;;14.67;71.88;101551.25;7396110;19;20014;-68
2022/09/02 08:10:02;;;;;;;2.55;2.35;;;;;;;14.78;71.31;101557.13;7397644;19;20010;-68
2022/09/02 08:12:33;;;;;;;4.65;2.88;;;;;;;14.87;70.98;101556.00;7397852;19;20031;-68
2022/09/02 08:15:02;;;;;;;3.30;2.22;;;;;;;14.96;70.71;101561.06;7396128;19;20014;-68
2022/09/02 08:17:31;;;;;;;4.80;2.63;;;;;;;15.05;70.29;101557.31;7397834;19;20015;-68
2022/09/02 08:20:00;;;;;;;3.92;2.38;;;;;;;15.17;70.13;101549.97;7398519;19;20028;-68
2022/09/02 08:22:35;;;;;;;4.57;2.95;;;;;;;15.26;69.60;101553.19;7397671;19;20044;-68
2022/09/02 08:25:04;;;;;;;5.20;3.00;;;;;;;15.35;69.23;101554.69;7395085;19;20399;-66
2022/09/02 08:27:35;;;;;;;4.28;3.08;;;;;;;15.44;68.99;101557.09;7397108;19;20025;-68
2022/09/02 08:30:04;;;;;;;4.15;2.40;;;;;;;15.55;68.78;101558.56;7396817;19;20014;-67
2022/09/02 08:32:33;;;;;;;3.08;1.92;;;;;;;15.64;68.33;101560.91;7394796;19;20035;-67
2022/09/02 08:35:03;;;;;;;3.28;2.05;;;;;;;15.73;68.04;101551.84;7395304;19;20035;-67
2022/09/02 08:37:32;;;;;;;1.95;1.63;;;;;;;15.84;67.25;101548.91;7397741;19;20024;-69
2022/09/02 08:40:03;;;;;;;4.05;1.92;;;;;;;15.94;66.20;101537.97;7395111;19;20082;-69
2022/09/02 08:42:38;;;;;;;4.88;2.17;;;;;;;16.06;66.00;101541.13;7397282;19;20039;-68
2022/09/02 08:45:12;;;;;;;5.68;3.38;;;;;;;16.18;65.51;101539.91;7395513;19;20045;-68
2022/09/02 08:47:45;;;;;;;5.78;1.92;;;;;;;16.27;64.52;101535.16;7395333;19;20019;-68
2022/09/02 08:50:16;;;;;;;2.83;1.63;;;;;;;16.38;63.59;101537.44;7397644;19;20015;-68
2022/09/02 08:52:53;;;;;;;4.95;1.67;;;;;;;16.49;63.06;101536.22;7395674;19;20011;-68
2022/09/02 08:55:28;;;;;;;3.35;1.80;;;;;;;16.61;62.34;101541.94;7395897;19;20031;-68
2022/09/02 08:58:00;;;;;;;3.05;1.45;;;;;;;16.73;61.07;101537.16;7396608;19;20031;-68
2022/09/02 09:00:32;;;;;;;3.15;1.30;;;;;;;16.83;60.96;101529.75;7395363;19;20019;-68
2022/09/02 09:03:06;;;;;;;3.97;1.35;;;;;;;16.93;59.10;101529.41;7394880;19;20015;-67
2022/09/02 09:05:46;;;;;;;4.43;1.10;;;;;;;17.04;58.90;101530.81;7395885;19;20342;-67
2022/09/02 09:08:24;;;;;;;1.67;1.10;;;;;;;17.16;58.76;101532.13;7395967;19;20018;-67
2022/09/02 09:11:02;;;;;;;1.35;0.77;;;;;;;17.24;57.57;101530.94;7396100;19;20487;-67
2022/09/02 09:13:52;;;;;;;1.27;0.57;;;;;;;17.36;54.92;101521.66;7394417;19;20018;-67
2022/09/02 09:16:33;;;;;;;1.60;0.70;;;;;;;17.49;55.73;101526.47;7393877;19;20015;-68
2022/09/02 09:19:08;;;;;;;2.42;0.93;;;;;;;17.56;55.03;101518.22;7395974;19;20011;-68
2022/09/02 09:21:37;;;;;;;2.67;0.60;;;;;;;17.67;54.26;101523.13;7396321;19;20074;-68
2022/09/02 09:24:20;;;;;;;2.97;0.80;;;;;;;17.72;53.34;101507.88;7393663;19;20014;-68
2022/09/02 09:26:48;;;;;;;4.15;1.00;;;;;;;17.87;53.45;101510.88;7395633;19;20074;-68
2022/09/02 09:29:20;;;;;;;0.82;0.70;;;;;;;17.96;51.89;101506.97;7395496;19;20078;-68
2022/09/02 09:31:57;;;;;;;1.13;0.82;;;;;;;18.04;52.53;101500.44;7394528;19;20022;-68
2022/09/02 09:34:25;;;;;;;1.42;0.73;;;;;;;18.13;52.12;101501.00;7393275;19;20474;-68
2022/09/02 09:36:55;;;;;;;1.40;0.63;;;;;;;18.22;51.82;101493.50;7393629;19;20014;-68
2022/09/02 09:39:29;;;;;;;2.13;0.60;;;;;;;18.33;49.90;101497.50;7395453;19;20038;-68
2022/09/02 09:41:59;;;;;;;6.50;0.90;;;;;;;18.42;50.89;101490.94;7395396;19;20018;-68
2022/09/02 09:44:38;;;;;;;3.05;1.15;;;;;;;18.50;48.67;101489.69;7393246;19;20018;-68
2022/09/02 09:47:09;;;;;;;1.10;0.60;;;;;;;18.60;49.90;101490.13;7395024;19;20374;-68
2022/09/02 09:49:39;;;;;;;1.10;0.57;;;;;;;18.69;49.80;101480.88;7395774;19;20014;-68
2022/09/02 09:52:08;;;;;;;3.85;0.77;;;;;;;18.78;49.13;101488.47;7394889;19;20021;-67
2022/09/02 09:54:37;;;;;;;2.90;0.93;;;;;;;18.87;48.57;101485.38;7393625;19;20022;-67
2022/09/02 09:57:23;;;;;;;3.35;0.95;;;;;;;18.95;47.96;101481.56;7393737;19;20020;-68
2022/09/02 09:59:55;;;;;;;1.58;0.50;;;;;;;19.01;48.28;101475.97;7396438;19;20029;-67
2022/09/02 10:02:26;;;;;;;1.60;0.50;;;;;;;19.11;47.90;101481.69;7395281;19;20022;-68
2022/09/02 10:04:55;;;;;;;4.32;1.38;;;;;;;19.23;47.75;101480.28;7393006;19;20481;-68
2022/09/02 10:07:39;;;;;;;1.17;0.60;;;;;;;19.32;45.80;101485.16;7394686;19;20341;-68
2022/09/02 10:10:20;;;;;;;1.55;0.80;;;;;;;19.42;46.94;101482.94;7394519;19;20015;-67
2022/09/02 10:12:51;;;;;;;3.67;1.40;;;;;;;19.47;47.04;101479.13;7394263;19;20351;-68
2022/09/02 10:15:31;;;;;;;3.78;1.10;;;;;;;19.50;46.78;101465.69;7393837;19;20040;-67
2022/09/02 10:18:12;;;;;;;2.60;0.90;;;;;;;19.58;46.77;101470.63;7393595;19;20018;-68
2022/09/02 10:20:50;;;;;;;3.58;1.02;;;;;;;19.67;45.91;101464.84;7394358;19;20031;-67
2022/09/02 10:23:31;;;;;;;2.97;1.17;;;;;;;19.80;45.75;101469.59;7391230;19;20474;-67
2022/09/02 10:26:11;;;;;;;1.85;1.65;;;;;;;19.95;45.79;101466.19;7397079;19;20495;-67
2022/09/02 10:29:05;;;;;;;1.88;1.00;;;;;;;20.11;46.69;101463.63;7400843;19;20413;-68
2022/09/02 10:31:44;;;;;;;1.65;1.10;;;;;;;20.24;46.43;101457.69;7397891;19;20015;-67
2022/09/02 10:34:22;;;;;;;2.05;1.20;;;;;;;20.32;46.93;101459.03;7398452;19;20015;-68
2022/09/02 10:37:13;;;;;;;3.70;1.05;;;;;;;20.40;47.37;101457.78;7400373;19;20034;-68
2022/09/02 10:40:01;;;;;;;1.75;1.23;;;;;;;20.43;46.47;101460.25;7398627;19;20023;-67
2022/09/02 10:42:36;;;;;;;3.63;1.00;;;;;;;20.44;46.92;101462.00;7400490;19;20018;-67
2022/09/02 10:45:16;;;;;;;2.40;1.00;;;;;;;20.45;46.76;101461.06;7398787;19;20014;-67
2022/09/02 10:47:57;;;;;;;1.80;1.00;;;;;;;20.49;46.62;101462.59;7402235;19;20032;-67
2022/09/02 10:50:36;;;;;;;3.10;1.15;;;;;;;20.58;46.99;101459.44;7398775;19;20019;-68
2022/09/02 10:53:24;;;;;;;2.35;0.90;;;;;;;20.72;45.69;101453.41;7402532;19;20014;-67
2022/09/02 10:55:59;;;;;;;1.63;1.17;;;;;;;20.83;45.28;101450.19;7399819;19;20103;-69
2022/09/02 10:58:40;;;;;;;2.03;1.15;;;;;;;20.93;43.99;101456.75;7400245;19;20017;-67
2022/09/02 11:01:14;;;;;;;4.07;1.40;;;;;;;21.03;44.73;101446.44;7400646;19;20011;-68
2022/09/02 11:03:47;;;;;;;;;;;;;;;21.10;42.23;101449.63;7399124;19;20396;-69
2022/09/02 11:06:24;;;;;;;2.80;1.63;;;;;;;21.20;43.46;101452.66;7401163;19;19986;-68
2022/09/02 11:08:57;;;;;;;2.00;1.20;;;;;;;21.31;42.86;101451.09;7400802;19;20506;-67
2022/09/02 11:11:33;;;;;;;2.03;0.90;;;;;;;21.44;42.54;101448.59;7398469;19;20018;-69
2022/09/02 11:14:23;;;;;;;2.30;1.50;;;;;;;21.55;40.98;101448.03;7398770;19;20041;-68
2022/09/02 11:16:57;;;;;;;1.65;0.85;;;;;;;21.63;41.12;101444.91;7399263;19;20018;-68
2022/09/02 11:19:34;;;;;;;0.98;0.70;;;;;;;21.67;39.55;101437.59;7401297;19;20015;-70
2022/09/02 11:22:12;;;;;;;2.60;1.30;;;;;;;21.72;40.91;101447.03;7396594;19;20018;-70
2022/09/02 11:24:49;;;;;;;1.90;1.42;;;;;;;21.72;39.00;101435.53;7396407;19;20024;-70
2022/09/02 11:27:26;;;;;;;3.55;1.10;;;;;;;21.68;40.39;101436.66;7399784;19;20018;-70
2022/09/02 11:30:02;;;;;;;2.75;1.35;;;;;;;21.63;40.87;101427.09;7398758;19;20372;-70
2022/09/02 11:32:36;;;;;;;1.35;1.23;;;;;;;21.59;40.80;101430.88;7398173;19;20461;-70
2022/09/02 11:35:19;;;;;;;2.83;0.82;;;;;;;21.53;40.87;101425.84;7397064;19;20044;-69
2022/09/02 11:37:52;;;;;;;1.13;0.90;;;;;;;21.48;41.30;101431.47;7395353;19;20018;-70
2022/09/02 11:40:27;;;;;;;2.15;1.15;;;;;;;21.43;40.67;101428.22;7398649;19;20074;-69
2022/09/02 11:43:16;;;;;;;1.30;0.98;;;;;;;21.44;39.91;101426.41;7396200;19;20481;-69
2022/09/02 11:46:00;;;;;;;1.25;0.88;;;;;;;21.45;40.14;101428.13;7397172;19;20014;-70